createdAt,value
2019-02-21T00:01:35.629Z,9.43
2019-02-21T00:05:37.508Z,10.90
2019-02-21T00:09:39.401Z,10.07
2019-02-21T00:13:41.284Z,9.80
2019-02-21T00:17:43.200Z,8.73
2019-02-21T00:21:45.081Z,6.77
2019-02-21T00:25:46.969Z,9.80
2019-02-21T00:29:49.131Z,9.73
2019-02-21T00:33:51.010Z,8.57
2019-02-21T00:37:52.954Z,7.80
2019-02-21T00:41:54.790Z,8.97
2019-02-21T00:45:56.682Z,7.03
2019-02-21T00:49:58.586Z,8.93
2019-02-21T00:54:00.477Z,7.47
2019-02-21T00:58:02.365Z,6.73
2019-02-21T01:02:04.372Z,6.53
2019-02-21T01:06:06.428Z,7.53
2019-02-21T01:10:09.360Z,10.23
2019-02-21T01:14:12.226Z,18.27
2019-02-21T01:18:14.103Z,7.57
2019-02-21T01:22:17.119Z,11.87
2019-02-21T01:26:19.076Z,7.87
2019-02-21T01:30:21.016Z,8.87
2019-02-21T01:34:23.032Z,11.23
2019-02-21T01:38:25.681Z,9.45
2019-02-21T01:42:27.573Z,13.43
2019-02-21T01:46:29.466Z,8.57
2019-02-21T01:50:31.707Z,8.53
2019-02-21T01:54:33.746Z,9.68
2019-02-21T01:58:53.999Z,9.18
2019-02-21T02:02:55.911Z,7.67
2019-02-21T02:06:57.828Z,12.30
2019-02-21T02:10:59.749Z,12.83
2019-02-21T02:15:04.020Z,13.77
2019-02-21T02:19:06.078Z,15.00
2019-02-21T02:23:08.964Z,10.57
2019-02-21T02:27:10.859Z,14.57
2019-02-21T02:31:22.060Z,9.27
2019-02-21T02:35:16.422Z,7.87
2019-02-21T02:39:18.483Z,9.63
2019-02-21T02:43:20.360Z,10.67
2019-02-21T02:47:22.261Z,8.63
2019-02-21T02:51:25.397Z,8.63
2019-02-21T02:55:27.306Z,7.17
2019-02-21T02:59:40.319Z,15.57
2019-02-21T03:03:32.821Z,16.10
2019-02-21T03:07:34.745Z,10.82
2019-02-21T03:11:36.653Z,9.43
2019-02-21T03:15:39.559Z,10.65
2019-02-21T03:19:41.464Z,11.57
2019-02-21T03:23:43.372Z,9.00
2019-02-21T03:27:45.371Z,16.90
2019-02-21T03:31:54.598Z,10.77
2019-02-21T03:35:50.951Z,8.87
2019-02-21T03:39:52.843Z,11.37
2019-02-21T03:43:54.783Z,9.53
2019-02-21T03:47:56.677Z,11.75
2019-02-21T03:51:58.643Z,12.15
2019-02-21T03:56:00.520Z,10.30
2019-02-21T04:00:02.557Z,10.90
2019-02-21T04:04:05.845Z,9.40
2019-02-21T04:08:07.792Z,7.37
2019-02-21T04:12:09.669Z,9.37
2019-02-21T04:16:11.575Z,17.57
2019-02-21T04:20:13.564Z,6.73
2019-02-21T04:24:15.469Z,10.80
2019-02-21T04:28:17.407Z,6.73
2019-02-21T04:32:19.456Z,14.13
2019-02-21T04:36:23.456Z,11.70
2019-02-21T04:40:26.595Z,19.87
2019-02-21T04:44:28.501Z,8.07
2019-02-21T04:48:30.413Z,13.40
2019-02-21T04:52:32.338Z,9.70
2019-02-21T04:56:34.254Z,13.23
2019-02-21T05:00:36.227Z,12.10
2019-02-21T05:04:38.142Z,8.20
2019-02-21T05:08:40.055Z,14.77
2019-02-21T05:12:41.969Z,14.38
2019-02-21T05:16:44.690Z,20.10
2019-02-21T05:20:46.661Z,14.20
2019-02-21T05:24:48.587Z,16.30
2019-02-21T05:28:50.505Z,15.00
2019-02-21T05:32:59.826Z,20.30
2019-02-21T05:37:06.465Z,19.40
2019-02-21T05:41:10.001Z,16.40
2019-02-21T05:45:25.597Z,13.73
2019-02-21T05:49:35.340Z,12.27
2019-02-21T05:53:38.892Z,12.10
2019-02-21T05:57:48.507Z,15.47
2019-02-21T06:01:57.809Z,22.80
2019-02-21T06:06:10.125Z,13.17
2019-02-21T06:10:17.259Z,12.50
2019-02-21T06:14:32.885Z,22.37
2019-02-21T06:18:43.519Z,10.53
2019-02-21T06:23:05.147Z,13.27
2019-02-21T06:27:08.686Z,13.50
2019-02-21T06:31:10.915Z,18.43
2019-02-21T06:35:12.996Z,12.50
2019-02-21T06:39:14.919Z,18.25
2019-02-21T06:43:16.959Z,12.68
2019-02-21T06:47:18.848Z,10.18
2019-02-21T06:51:20.767Z,20.87
2019-02-21T06:55:22.686Z,20.40
2019-02-21T06:59:25.869Z,10.63
2019-02-21T07:03:29.071Z,13.03
2019-02-21T07:07:31.010Z,11.93
2019-02-21T07:11:32.930Z,20.70
2019-02-21T07:15:34.849Z,19.20
2019-02-21T07:19:36.766Z,20.13
2019-02-21T07:23:43.466Z,18.73
2019-02-21T07:27:42.337Z,24.95
2019-02-21T07:31:44.298Z,19.17
2019-02-21T07:35:46.203Z,12.30
2019-02-21T07:39:50.767Z,19.03
2019-02-21T07:43:52.022Z,29.55
2019-02-21T07:47:54.059Z,19.98
2019-02-21T07:51:55.968Z,16.40
2019-02-21T07:55:57.872Z,14.03
2019-02-21T07:59:59.815Z,28.57
2019-02-21T08:04:01.707Z,19.47
2019-02-21T08:08:03.618Z,24.80
2019-02-21T08:12:06.505Z,32.13
2019-02-21T08:16:08.406Z,30.10
2019-02-21T08:20:12.715Z,29.40
2019-02-21T08:24:14.660Z,25.30
2019-02-21T08:28:16.548Z,21.67
2019-02-21T08:32:20.087Z,31.23
2019-02-21T08:36:22.002Z,32.50
2019-02-21T08:40:25.129Z,27.57
2019-02-21T08:44:28.922Z,40.80
2019-02-21T08:48:30.682Z,31.27
2019-02-21T08:52:32.578Z,29.73
2019-02-21T08:56:34.481Z,21.43
2019-02-21T09:00:36.584Z,34.67
2019-02-21T09:04:38.500Z,21.17
2019-02-21T09:08:40.392Z,23.97
2019-02-21T09:12:47.134Z,27.70
2019-02-21T09:16:46.072Z,29.57
2019-02-21T09:20:47.983Z,23.47
2019-02-21T09:24:49.917Z,27.70
2019-02-21T09:28:51.805Z,23.97
2019-02-21T09:32:53.717Z,31.27
2019-02-21T09:36:55.623Z,35.00
2019-02-21T09:40:57.527Z,27.10
2019-02-21T09:44:59.427Z,23.33
2019-02-21T09:49:03.022Z,34.20
2019-02-21T09:53:06.153Z,34.13
2019-02-21T09:57:13.329Z,30.73
2019-02-21T10:01:11.687Z,29.60
2019-02-21T10:05:13.778Z,26.83
2019-02-21T10:09:16.632Z,25.13
2019-02-21T10:13:18.556Z,32.60
2019-02-21T10:17:20.462Z,31.67
2019-02-21T10:21:22.471Z,26.70
2019-02-21T10:25:30.356Z,29.43
2019-02-21T10:29:32.240Z,30.20
2019-02-21T10:33:34.157Z,26.65
2019-02-21T10:37:36.050Z,25.73
2019-02-21T10:41:37.983Z,29.03
2019-02-21T10:45:47.420Z,26.27
2019-02-21T10:49:43.512Z,23.07
2019-02-21T10:53:45.433Z,25.80
2019-02-21T10:57:47.792Z,23.97
2019-02-21T11:01:49.696Z,29.93
2019-02-21T11:05:51.601Z,23.33
2019-02-21T11:09:53.496Z,26.77
2019-02-21T11:13:55.413Z,25.67
2019-02-21T11:17:57.352Z,22.37
2019-02-21T11:21:59.261Z,21.17
2019-02-21T11:26:01.739Z,24.77
2019-02-21T11:30:05.095Z,21.90
2019-02-21T11:34:07.012Z,26.73
2019-02-21T11:38:08.969Z,21.47
2019-02-21T11:42:10.883Z,21.23
2019-02-21T11:46:12.771Z,21.03
2019-02-21T11:50:17.299Z,22.60
2019-02-21T11:54:26.483Z,25.33
2019-02-21T11:58:22.856Z,20.97
2019-02-21T12:02:26.029Z,22.73
2019-02-21T12:06:27.959Z,25.03
2019-02-21T12:10:29.875Z,25.37
2019-02-21T12:14:31.794Z,27.42
2019-02-21T12:18:33.726Z,25.43
2019-02-21T12:22:35.694Z,22.53
2019-02-21T12:26:37.546Z,24.50
2019-02-21T12:30:39.465Z,27.82
2019-02-21T12:34:41.394Z,24.93
2019-02-21T12:38:43.344Z,27.00
2019-02-21T12:42:45.273Z,25.13
2019-02-21T12:46:47.243Z,27.43
2019-02-21T12:50:49.140Z,21.27
2019-02-21T12:54:51.856Z,24.47
2019-02-21T12:58:54.822Z,21.90
2019-02-21T13:02:56.754Z,21.47
2019-02-21T13:06:58.670Z,19.63
2019-02-21T13:11:00.595Z,18.03
2019-02-21T13:15:02.517Z,20.10
2019-02-21T13:19:04.501Z,18.30
2019-02-21T13:23:06.427Z,21.43
2019-02-21T13:27:08.329Z,19.67
2019-02-21T13:31:10.247Z,19.07
2019-02-21T13:35:15.341Z,18.90
2019-02-21T13:39:17.243Z,19.23
2019-02-21T13:43:23.791Z,17.47
2019-02-21T13:47:26.276Z,21.20
2019-02-21T13:51:28.199Z,18.73
2019-02-21T13:55:30.116Z,22.13
2019-02-21T13:59:34.783Z,19.50
2019-02-21T14:03:35.708Z,20.53
2019-02-21T14:07:37.604Z,25.27
2019-02-21T14:11:39.569Z,19.87
2019-02-21T14:15:41.563Z,19.93
2019-02-21T14:19:44.451Z,18.60
2019-02-21T14:23:47.351Z,28.80
2019-02-21T14:27:49.269Z,19.63
2019-02-21T14:31:51.220Z,16.40
2019-02-21T14:35:53.111Z,18.17
2019-02-21T14:39:55.051Z,15.87
2019-02-21T14:43:56.942Z,20.47
2019-02-21T14:47:58.852Z,21.30
2019-02-21T14:52:02.011Z,18.87
2019-02-21T14:56:04.088Z,17.27
2019-02-21T15:00:16.116Z,27.13
2019-02-21T15:04:18.269Z,21.50
2019-02-21T15:08:22.205Z,19.23
2019-02-21T15:12:24.141Z,18.67
2019-02-21T15:16:26.336Z,18.83
2019-02-21T15:20:36.369Z,18.37
2019-02-21T15:24:31.852Z,18.87
2019-02-21T15:28:33.759Z,18.85
2019-02-21T15:32:35.659Z,20.95
2019-02-21T15:36:38.499Z,20.43
2019-02-21T15:40:43.410Z,23.15
2019-02-21T15:44:45.253Z,17.10
2019-02-21T15:48:47.157Z,16.20
2019-02-21T15:52:49.539Z,17.23
2019-02-21T15:56:51.527Z,20.03
2019-02-21T16:00:53.448Z,21.10
2019-02-21T16:04:55.346Z,20.00
2019-02-21T16:08:57.260Z,15.37
2019-02-21T16:12:59.540Z,19.73
2019-02-21T16:17:01.760Z,12.70
2019-02-21T16:21:03.646Z,22.33
2019-02-21T16:25:12.693Z,21.13
2019-02-21T16:29:14.706Z,20.73
2019-02-21T16:33:16.614Z,16.13
2019-02-21T16:37:18.502Z,12.57
2019-02-21T16:41:20.425Z,18.73
2019-02-21T16:45:23.428Z,23.20
2019-02-21T16:49:26.298Z,16.95
2019-02-21T16:53:28.290Z,21.40
2019-02-21T16:57:30.195Z,15.73
2019-02-21T17:01:32.084Z,19.20
2019-02-21T17:05:34.237Z,16.62
2019-02-21T17:09:36.145Z,15.13
2019-02-21T17:13:39.143Z,25.77
2019-02-21T17:17:41.035Z,17.85
2019-02-21T17:21:42.937Z,21.33
2019-02-21T17:25:44.833Z,20.60
2019-02-21T17:29:46.745Z,22.47
2019-02-21T17:33:48.646Z,16.93
2019-02-21T17:37:50.548Z,21.07
2019-02-21T17:41:52.519Z,12.37
2019-02-21T17:45:54.465Z,20.73
2019-02-21T17:49:56.370Z,20.08
2019-02-21T17:53:58.331Z,17.63
2019-02-21T17:58:00.236Z,41.60
2019-02-21T18:02:02.251Z,28.53
2019-02-21T18:06:04.163Z,21.17
2019-02-21T18:10:13.546Z,20.23
2019-02-21T18:14:15.448Z,22.60
2019-02-21T18:18:17.464Z,25.77
2019-02-21T18:22:19.411Z,25.57
2019-02-21T18:26:21.323Z,23.67
2019-02-21T18:30:23.895Z,26.10
2019-02-21T18:34:26.402Z,33.63
2019-02-21T18:38:28.456Z,25.33
2019-02-21T18:42:30.369Z,27.90
2019-02-21T18:46:32.272Z,26.80
2019-02-21T18:50:38.267Z,26.20
2019-02-21T18:54:37.775Z,27.30
2019-02-21T18:58:39.695Z,30.43
2019-02-21T19:02:42.567Z,28.80
2019-02-21T19:06:44.466Z,29.07
2019-02-21T19:10:46.378Z,27.97
2019-02-21T19:14:48.292Z,33.40
2019-02-21T19:18:50.199Z,33.20
2019-02-21T19:22:52.104Z,27.67
2019-02-21T19:26:53.991Z,25.90
2019-02-21T19:31:06.104Z,30.47
2019-02-21T19:35:09.564Z,17.50
2019-02-21T19:39:12.503Z,27.98
2019-02-21T19:43:14.433Z,29.70
2019-02-21T19:47:16.311Z,30.13
2019-02-21T19:51:18.212Z,33.77
2019-02-21T19:55:20.125Z,25.33
2019-02-21T19:59:22.040Z,29.03
2019-02-21T20:03:24.091Z,29.40
2019-02-21T20:07:26.525Z,33.43
2019-02-21T20:11:29.305Z,29.30
2019-02-21T20:15:31.317Z,26.42
2019-02-21T20:19:33.280Z,35.17
2019-02-21T20:23:35.179Z,35.73
2019-02-21T20:27:37.086Z,33.73
2019-02-21T20:31:38.991Z,39.05
2019-02-21T20:35:40.883Z,37.57
2019-02-21T20:39:42.791Z,37.63
2019-02-21T20:43:44.697Z,38.27
2019-02-21T20:47:46.614Z,36.63
2019-02-21T20:51:48.496Z,37.78
2019-02-21T20:55:50.415Z,37.50
2019-02-21T20:59:52.316Z,36.50
2019-02-21T21:03:54.248Z,39.10
2019-02-21T21:07:56.158Z,38.73
2019-02-21T21:11:58.113Z,43.13
2019-02-21T21:16:00.022Z,41.30
2019-02-21T21:20:01.934Z,41.37
2019-02-21T21:24:05.437Z,42.62
2019-02-21T21:28:07.457Z,36.53
2019-02-21T21:32:10.242Z,40.07
2019-02-21T21:36:12.132Z,40.63
2019-02-21T21:40:17.074Z,36.20
2019-02-21T21:44:18.991Z,42.10
2019-02-21T21:48:20.906Z,44.73
2019-02-21T21:52:22.894Z,47.83
2019-02-21T21:56:24.791Z,41.30
2019-02-21T22:00:26.956Z,43.07
2019-02-21T22:04:28.848Z,37.13
2019-02-21T22:08:30.779Z,41.95
2019-02-21T22:12:32.801Z,44.57
2019-02-21T22:16:34.707Z,40.75
2019-02-21T22:20:37.377Z,46.23
2019-02-21T22:24:39.269Z,45.50
2019-02-21T22:28:41.206Z,48.52
2019-02-21T22:32:43.108Z,44.60
2019-02-21T22:36:45.015Z,49.30
2019-02-21T22:40:46.977Z,46.90
2019-02-21T22:44:48.861Z,53.50
2019-02-21T22:48:50.804Z,45.80
2019-02-21T22:52:52.691Z,52.97
2019-02-21T22:56:54.805Z,45.03
2019-02-21T23:01:01.669Z,41.90
2019-02-21T23:05:23.571Z,45.90
2019-02-21T23:09:28.222Z,49.53
2019-02-21T23:13:30.294Z,51.17
2019-02-21T23:17:32.190Z,51.75
2019-02-21T23:21:34.180Z,50.53
2019-02-21T23:25:36.092Z,50.50
2019-02-21T23:29:38.196Z,49.45
2019-02-21T23:33:41.727Z,49.50
2019-02-21T23:37:43.624Z,48.00
2019-02-21T23:41:45.561Z,49.50
2019-02-21T23:45:47.451Z,45.57
2019-02-21T23:49:49.364Z,39.43
2019-02-21T23:53:51.308Z,48.27
2019-02-21T23:57:53.605Z,51.37
